createdAt,value
2023-02-12T00:01:11.120Z,8.24
2023-02-12T00:03:39.171Z,8.19
2023-02-12T00:06:07.098Z,8.18
2023-02-12T00:08:33.912Z,8.14
2023-02-12T00:11:00.292Z,8.08
2023-02-12T00:13:26.746Z,8.08
2023-02-12T00:15:53.419Z,8.12
2023-02-12T00:18:19.945Z,8.07
2023-02-12T00:20:46.474Z,8.13
2023-02-12T00:23:13.103Z,8.15
2023-02-12T00:25:41.626Z,8.16
2023-02-12T00:28:08.205Z,8.07
2023-02-12T00:30:35.429Z,8.08
2023-02-12T00:33:01.791Z,8.04
2023-02-12T00:35:28.186Z,8.11
2023-02-12T00:37:54.624Z,8.13
2023-02-12T00:40:21.014Z,8.10
2023-02-12T00:42:47.570Z,8.12
2023-02-12T00:45:14.173Z,8.09
2023-02-12T00:47:40.653Z,8.08
2023-02-12T00:50:07.631Z,8.06
2023-02-12T00:52:34.026Z,8.05
2023-02-12T00:55:00.438Z,8.02
2023-02-12T00:57:26.885Z,8.04
2023-02-12T00:59:53.264Z,8.01
2023-02-12T01:02:19.739Z,7.99
2023-02-12T01:04:46.194Z,7.97
2023-02-12T01:07:12.735Z,7.94
2023-02-12T01:09:39.118Z,7.92
2023-02-12T01:12:05.909Z,7.91
2023-02-12T01:14:32.436Z,7.98
2023-02-12T01:16:58.821Z,8.04
2023-02-12T01:19:25.329Z,7.96
2023-02-12T01:21:51.786Z,7.97
2023-02-12T01:24:18.239Z,8.00
2023-02-12T01:26:44.665Z,8.08
2023-02-12T01:29:11.264Z,8.09
2023-02-12T01:31:39.459Z,8.03
2023-02-12T01:34:07.142Z,8.01
2023-02-12T01:36:34.018Z,8.01
2023-02-12T01:39:02.860Z,8.04
2023-02-12T01:41:35.902Z,7.95
2023-02-12T01:44:17.380Z,7.92
2023-02-12T01:46:45.968Z,7.94
2023-02-12T01:49:17.824Z,7.94
2023-02-12T01:51:45.818Z,8.02
2023-02-12T01:54:15.128Z,7.98
2023-02-12T01:56:42.306Z,7.97
2023-02-12T01:59:09.092Z,7.94
2023-02-12T02:01:35.895Z,7.94
2023-02-12T02:04:07.862Z,7.87
2023-02-12T02:06:39.805Z,7.93
2023-02-12T02:09:06.385Z,7.90
2023-02-12T02:11:51.298Z,7.92
2023-02-12T02:14:33.628Z,7.91
2023-02-12T02:17:24.200Z,7.90
2023-02-12T02:19:57.399Z,7.97
2023-02-12T02:22:29.327Z,7.97
2023-02-12T02:25:23.151Z,8.03
2023-02-12T02:28:23.595Z,7.94
2023-02-12T02:31:25.297Z,7.94
2023-02-12T02:33:57.550Z,7.89
2023-02-12T02:36:34.905Z,7.88
2023-02-12T02:39:14.210Z,7.87
2023-02-12T02:41:53.465Z,7.88
2023-02-12T02:44:28.547Z,7.90
2023-02-12T02:46:56.550Z,7.88
2023-02-12T02:49:33.988Z,7.90
2023-02-12T02:52:06.116Z,7.89
2023-02-12T02:54:37.915Z,7.83
2023-02-12T02:57:21.048Z,7.86
2023-02-12T02:59:52.465Z,7.87
2023-02-12T03:02:28.154Z,7.89
2023-02-12T03:05:19.424Z,7.80
2023-02-12T03:07:52.244Z,7.78
2023-02-12T03:10:24.250Z,7.77
2023-02-12T03:13:07.304Z,7.77
2023-02-12T03:15:54.491Z,7.73
2023-02-12T03:18:27.777Z,7.78
2023-02-12T03:21:01.352Z,7.83
2023-02-12T03:23:52.657Z,7.91
2023-02-12T03:26:25.962Z,7.90
2023-02-12T03:28:52.475Z,7.88
2023-02-12T03:31:21.607Z,7.89
2023-02-12T03:34:02.379Z,7.86
2023-02-12T03:36:53.826Z,7.85
2023-02-12T03:39:31.180Z,7.87
2023-02-12T03:42:16.350Z,7.87
2023-02-12T03:44:57.869Z,7.80
2023-02-12T03:47:42.884Z,7.79
2023-02-12T03:50:34.571Z,7.85
2023-02-12T03:53:01.191Z,7.87
2023-02-12T03:55:29.868Z,7.85
2023-02-12T03:58:01.256Z,7.87
2023-02-12T04:00:27.924Z,7.88
2023-02-12T04:02:55.282Z,7.84
2023-02-12T04:05:26.985Z,7.80
2023-02-12T04:07:56.494Z,7.81
2023-02-12T04:10:29.988Z,7.73
2023-02-12T04:13:26.259Z,7.74
2023-02-12T04:16:11.483Z,7.67
2023-02-12T04:18:44.464Z,7.67
2023-02-12T04:21:39.784Z,7.79
2023-02-12T04:24:32.292Z,7.73
2023-02-12T04:27:25.488Z,7.72
2023-02-12T04:30:06.498Z,7.72
2023-02-12T04:32:43.156Z,7.70
2023-02-12T04:35:27.544Z,7.69
2023-02-12T04:38:03.810Z,7.53
2023-02-12T04:40:31.043Z,7.55
2023-02-12T04:42:57.455Z,7.63
2023-02-12T04:45:30.043Z,7.70
2023-02-12T04:47:57.013Z,7.72
2023-02-12T04:50:23.871Z,7.73
2023-02-12T04:52:50.374Z,7.77
2023-02-12T04:55:16.820Z,7.76
2023-02-12T04:57:43.290Z,7.75
2023-02-12T05:00:12.988Z,7.71
2023-02-12T05:02:39.387Z,7.72
2023-02-12T05:05:06.213Z,7.77
2023-02-12T05:07:32.680Z,7.71
2023-02-12T05:09:59.015Z,7.74
2023-02-12T05:12:25.407Z,7.71
2023-02-12T05:14:51.790Z,7.59
2023-02-12T05:17:18.182Z,7.58
2023-02-12T05:19:44.523Z,7.59
2023-02-12T05:22:11.465Z,7.64
2023-02-12T05:24:37.943Z,7.68
2023-02-12T05:27:04.517Z,7.68
2023-02-12T05:29:30.930Z,7.70
2023-02-12T05:31:57.388Z,7.72
2023-02-12T05:34:23.796Z,7.70
2023-02-12T05:36:50.234Z,7.70
2023-02-12T05:39:16.905Z,7.67
2023-02-12T05:41:43.531Z,7.70
2023-02-12T05:44:12.032Z,7.70
2023-02-12T05:46:39.273Z,7.73
2023-02-12T05:49:05.686Z,7.74
2023-02-12T05:51:32.406Z,7.69
2023-02-12T05:54:03.653Z,7.72
2023-02-12T05:56:32.639Z,7.72
2023-02-12T05:59:05.875Z,7.59
2023-02-12T06:01:35.353Z,7.54
2023-02-12T06:04:04.209Z,7.50
2023-02-12T06:06:31.985Z,7.44
2023-02-12T06:08:58.828Z,7.48
2023-02-12T06:11:25.359Z,7.53
2023-02-12T06:13:51.867Z,7.49
2023-02-12T06:16:24.720Z,7.51
2023-02-12T06:18:51.628Z,7.59
2023-02-12T06:21:20.031Z,7.50
2023-02-12T06:23:47.374Z,7.56
2023-02-12T06:26:13.852Z,7.63
2023-02-12T06:28:40.322Z,7.71
2023-02-12T06:31:20.002Z,7.79
2023-02-12T06:33:46.727Z,7.71
2023-02-12T06:36:13.083Z,7.67
2023-02-12T06:38:39.586Z,7.64
2023-02-12T06:41:05.998Z,7.66
2023-02-12T06:43:32.358Z,7.68
2023-02-12T06:46:02.829Z,7.75
2023-02-12T06:48:30.052Z,7.79
2023-02-12T06:50:56.721Z,7.78
2023-02-12T06:53:23.256Z,7.77
2023-02-12T06:55:49.652Z,7.80
2023-02-12T06:58:16.022Z,7.75
2023-02-12T07:00:42.387Z,7.81
2023-02-12T07:03:08.789Z,7.74
2023-02-12T07:05:37.831Z,7.70
2023-02-12T07:08:04.239Z,7.74
2023-02-12T07:10:30.688Z,7.75
2023-02-12T07:12:57.223Z,7.70
2023-02-12T07:15:23.556Z,7.77
2023-02-12T07:17:49.921Z,7.80
2023-02-12T07:20:16.410Z,7.79
2023-02-12T07:22:42.767Z,7.71
2023-02-12T07:25:09.446Z,7.75
2023-02-12T07:27:39.147Z,7.80
2023-02-12T07:30:06.496Z,7.73
2023-02-12T07:32:34.527Z,7.73
2023-02-12T07:35:01.129Z,7.75
2023-02-12T07:37:27.514Z,7.83
2023-02-12T07:39:53.942Z,7.85
2023-02-12T07:42:20.308Z,7.88
2023-02-12T07:44:46.655Z,7.88
2023-02-12T07:47:13.001Z,7.87
2023-02-12T07:49:39.360Z,7.87
2023-02-12T07:52:05.705Z,7.90
2023-02-12T07:54:32.195Z,7.93
2023-02-12T07:57:00.526Z,7.89
2023-02-12T07:59:26.999Z,7.91
2023-02-12T08:01:53.779Z,7.85
2023-02-12T08:04:23.251Z,7.87
2023-02-12T08:06:51.890Z,7.93
2023-02-12T08:09:21.181Z,7.91
2023-02-12T08:11:47.873Z,8.01
2023-02-12T08:14:16.990Z,8.09
2023-02-12T08:16:44.768Z,8.18
2023-02-12T08:19:19.512Z,8.24
2023-02-12T08:21:52.610Z,8.33
2023-02-12T08:24:19.253Z,8.33
2023-02-12T08:26:45.714Z,8.35
2023-02-12T08:29:18.619Z,8.38
2023-02-12T08:31:47.604Z,8.42
2023-02-12T08:34:29.038Z,8.39
2023-02-12T08:36:56.429Z,8.37
2023-02-12T08:39:25.149Z,8.43
2023-02-12T08:41:53.659Z,8.43
2023-02-12T08:44:20.029Z,8.47
2023-02-12T08:46:50.075Z,8.48
2023-02-12T08:49:19.569Z,8.44
2023-02-12T08:51:48.807Z,8.46
2023-02-12T08:54:18.328Z,8.46
2023-02-12T08:56:45.621Z,8.46
2023-02-12T08:59:13.611Z,8.46
2023-02-12T09:01:43.639Z,8.60
2023-02-12T09:04:18.000Z,8.70
2023-02-12T09:06:45.917Z,8.70
2023-02-12T09:09:12.702Z,8.78
2023-02-12T09:11:39.139Z,8.69
2023-02-12T09:14:09.025Z,8.69
2023-02-12T09:16:37.298Z,8.76
2023-02-12T09:19:04.249Z,8.80
2023-02-12T09:21:30.993Z,8.84
2023-02-12T09:23:57.408Z,8.82
2023-02-12T09:26:26.126Z,8.95
2023-02-12T09:28:53.552Z,9.11
2023-02-12T09:31:28.452Z,9.14
2023-02-12T09:33:59.033Z,9.15
2023-02-12T09:36:26.100Z,9.15
2023-02-12T09:38:54.118Z,9.16
2023-02-12T09:41:34.762Z,9.02
2023-02-12T09:44:17.569Z,8.89
2023-02-12T09:46:53.489Z,9.04
2023-02-12T09:49:41.590Z,9.08
2023-02-12T09:52:16.331Z,9.12
2023-02-12T09:54:43.332Z,9.23
2023-02-12T09:57:36.691Z,9.24
2023-02-12T10:00:15.702Z,9.24
2023-02-12T10:02:42.143Z,9.38
2023-02-12T10:05:20.618Z,9.41
2023-02-12T10:07:52.965Z,9.37
2023-02-12T10:10:38.131Z,9.31
2023-02-12T10:13:08.704Z,9.43
2023-02-12T10:16:09.685Z,9.48
2023-02-12T10:18:57.940Z,9.63
2023-02-12T10:21:33.832Z,9.71
2023-02-12T10:24:00.261Z,9.86
2023-02-12T10:26:31.652Z,9.93
2023-02-12T10:29:09.479Z,9.80
2023-02-12T10:31:40.837Z,9.87
2023-02-12T10:34:18.107Z,9.76
2023-02-12T10:36:47.458Z,9.78
2023-02-12T10:39:25.713Z,9.92
2023-02-12T10:41:59.335Z,9.90
2023-02-12T10:44:27.371Z,9.97
2023-02-12T10:46:54.335Z,10.04
2023-02-12T10:49:21.561Z,10.16
2023-02-12T10:52:09.703Z,10.17
2023-02-12T10:54:46.621Z,10.24
2023-02-12T10:57:24.142Z,10.35
2023-02-12T10:59:53.319Z,10.18
2023-02-12T11:02:34.133Z,10.26
2023-02-12T11:05:23.025Z,10.40
2023-02-12T11:07:51.526Z,10.43
2023-02-12T11:10:29.309Z,10.37
2023-02-12T11:12:55.980Z,10.45
2023-02-12T11:15:24.408Z,10.52
2023-02-12T11:18:05.336Z,10.62
2023-02-12T11:20:41.304Z,10.67
2023-02-12T11:23:39.528Z,10.54
2023-02-12T11:26:19.301Z,10.57
2023-02-12T11:28:58.027Z,10.46
2023-02-12T11:31:30.477Z,10.52
2023-02-12T11:34:08.692Z,10.52
2023-02-12T11:36:43.887Z,10.46
2023-02-12T11:39:21.345Z,10.60
2023-02-12T11:41:53.878Z,10.51
2023-02-12T11:44:34.520Z,10.60
2023-02-12T11:47:09.186Z,10.60
2023-02-12T11:49:49.339Z,10.71
2023-02-12T11:52:23.074Z,10.78
2023-02-12T11:54:53.290Z,10.88
2023-02-12T11:57:38.629Z,10.75
2023-02-12T12:00:16.061Z,10.69
2023-02-12T12:02:50.500Z,10.85
2023-02-12T12:05:20.949Z,10.92
2023-02-12T12:07:55.662Z,10.82
2023-02-12T12:10:41.024Z,10.89
2023-02-12T12:13:16.298Z,11.00
2023-02-12T12:16:05.966Z,11.09
2023-02-12T12:18:55.562Z,11.12
2023-02-12T12:21:55.594Z,11.05
2023-02-12T12:24:36.775Z,11.03
2023-02-12T12:27:50.248Z,11.04
2023-02-12T12:30:24.831Z,11.01
2023-02-12T12:32:54.051Z,11.04
2023-02-12T12:35:26.979Z,11.09
2023-02-12T12:38:06.720Z,11.16
2023-02-12T12:40:46.922Z,11.06
2023-02-12T12:43:35.325Z,11.22
2023-02-12T12:46:08.526Z,11.25
2023-02-12T12:48:46.198Z,11.18
2023-02-12T12:51:32.545Z,11.08
2023-02-12T12:54:25.106Z,11.10
2023-02-12T12:57:35.167Z,11.12
2023-02-12T13:00:20.996Z,11.21
2023-02-12T13:03:17.956Z,11.29
2023-02-12T13:06:08.746Z,11.22
2023-02-12T13:09:06.379Z,11.10
2023-02-12T13:12:11.262Z,11.23
2023-02-12T13:14:59.147Z,11.34
2023-02-12T13:17:50.279Z,11.43
2023-02-12T13:20:22.773Z,11.23
2023-02-12T13:23:14.345Z,11.32
2023-02-12T13:25:50.730Z,11.38
2023-02-12T13:28:29.452Z,11.34
2023-02-12T13:30:56.543Z,11.36
2023-02-12T13:33:48.598Z,11.36
2023-02-12T13:36:15.317Z,11.35
2023-02-12T13:39:16.379Z,11.26
2023-02-12T13:41:53.010Z,11.38
2023-02-12T13:44:44.145Z,11.47
2023-02-12T13:47:25.906Z,11.28
2023-02-12T13:49:56.062Z,11.40
2023-02-12T13:53:18.067Z,11.45
2023-02-12T13:56:06.974Z,11.56
2023-02-12T13:58:39.439Z,11.55
2023-02-12T14:01:33.148Z,11.52
2023-02-12T14:04:14.451Z,11.51
2023-02-12T14:06:53.004Z,11.54
2023-02-12T14:09:27.148Z,11.59
2023-02-12T14:11:54.141Z,11.46
2023-02-12T14:14:33.917Z,11.37
2023-02-12T14:17:38.766Z,11.44
2023-02-12T14:20:23.635Z,11.35
2023-02-12T14:22:49.984Z,11.35
2023-02-12T14:25:16.470Z,11.38
2023-02-12T14:27:44.528Z,11.49
2023-02-12T14:30:10.867Z,11.57
2023-02-12T14:32:57.312Z,11.61
2023-02-12T14:35:26.517Z,11.63
2023-02-12T14:37:58.742Z,11.66
2023-02-12T14:40:40.719Z,11.68
2023-02-12T14:43:28.113Z,11.60
2023-02-12T14:45:57.098Z,11.52
2023-02-12T14:48:42.574Z,11.53
2023-02-12T14:51:17.644Z,11.50
2023-02-12T14:53:47.618Z,11.51
2023-02-12T14:56:20.284Z,11.50
2023-02-12T14:58:47.074Z,11.56
2023-02-12T15:01:13.638Z,11.59
2023-02-12T15:03:50.582Z,11.61
2023-02-12T15:06:20.271Z,11.65
2023-02-12T15:08:51.189Z,11.68
2023-02-12T15:11:28.020Z,11.61
2023-02-12T15:14:04.509Z,11.57
2023-02-12T15:16:52.861Z,11.53
2023-02-12T15:19:40.441Z,11.52
2023-02-12T15:22:20.183Z,11.56
2023-02-12T15:24:46.911Z,11.57
2023-02-12T15:27:15.794Z,11.49
2023-02-12T15:29:48.374Z,11.47
2023-02-12T15:32:27.383Z,11.47
2023-02-12T15:34:55.507Z,11.50
2023-02-12T15:37:28.922Z,11.49
2023-02-12T15:40:01.618Z,11.51
2023-02-12T15:42:32.429Z,11.46
2023-02-12T15:45:07.931Z,11.47
2023-02-12T15:47:34.752Z,11.48
2023-02-12T15:50:01.172Z,11.48
2023-02-12T15:52:35.602Z,11.49
2023-02-12T15:55:04.942Z,11.47
2023-02-12T15:57:32.384Z,11.48
2023-02-12T16:00:06.276Z,11.50
2023-02-12T16:02:35.582Z,11.45
2023-02-12T16:05:04.478Z,11.47
2023-02-12T16:07:36.990Z,11.47
2023-02-12T16:10:05.451Z,11.50
2023-02-12T16:12:36.951Z,11.47
2023-02-12T16:15:04.497Z,11.49
2023-02-12T16:17:34.538Z,11.48
2023-02-12T16:20:20.309Z,11.48
2023-02-12T16:22:49.123Z,11.40
2023-02-12T16:25:26.356Z,11.32
2023-02-12T16:28:13.308Z,11.38
2023-02-12T16:30:42.885Z,11.37
2023-02-12T16:33:35.706Z,11.35
2023-02-12T16:36:10.980Z,11.34
2023-02-12T16:38:49.139Z,11.35
2023-02-12T16:41:15.481Z,11.36
2023-02-12T16:43:41.842Z,11.37
2023-02-12T16:46:09.194Z,11.40
2023-02-12T16:48:49.438Z,11.41
2023-02-12T16:51:35.304Z,11.40
2023-02-12T16:54:03.679Z,11.37
2023-02-12T16:56:40.494Z,11.36
2023-02-12T16:59:06.842Z,11.37
2023-02-12T17:01:36.149Z,11.37
2023-02-12T17:04:14.038Z,11.37
2023-02-12T17:06:40.424Z,11.29
2023-02-12T17:09:06.793Z,11.23
2023-02-12T17:11:33.182Z,11.27
2023-02-12T17:13:59.515Z,11.27
2023-02-12T17:16:31.154Z,11.25
2023-02-12T17:18:59.640Z,11.21
2023-02-12T17:21:38.215Z,11.17
2023-02-12T17:24:18.005Z,11.15
2023-02-12T17:26:44.490Z,11.10
2023-02-12T17:29:10.964Z,11.12
2023-02-12T17:31:38.010Z,11.11
2023-02-12T17:34:05.263Z,11.10
2023-02-12T17:36:31.803Z,11.11
2023-02-12T17:38:59.109Z,11.14
2023-02-12T17:41:25.849Z,11.16
2023-02-12T17:43:52.429Z,11.09
2023-02-12T17:46:25.318Z,11.11
2023-02-12T17:48:52.024Z,11.10
2023-02-12T17:51:19.271Z,11.11
2023-02-12T17:53:46.142Z,11.11
2023-02-12T17:56:14.842Z,11.15
2023-02-12T17:58:42.536Z,11.11
2023-02-12T18:01:11.828Z,11.09
2023-02-12T18:03:38.949Z,11.07
2023-02-12T18:06:06.903Z,11.03
2023-02-12T18:08:33.688Z,10.99
2023-02-12T18:11:05.608Z,10.84
2023-02-12T18:13:32.185Z,10.83
2023-02-12T18:15:58.621Z,10.83
2023-02-12T18:18:25.045Z,10.88
2023-02-12T18:20:51.431Z,10.89
2023-02-12T18:23:17.827Z,10.78
2023-02-12T18:25:44.394Z,10.83
2023-02-12T18:28:12.048Z,10.70
2023-02-12T18:30:42.640Z,10.71
2023-02-12T18:33:10.243Z,10.64
2023-02-12T18:35:41.639Z,10.62
2023-02-12T18:38:08.072Z,10.71
2023-02-12T18:40:34.419Z,10.76
2023-02-12T18:43:01.104Z,10.77
2023-02-12T18:45:27.547Z,10.81
2023-02-12T18:47:53.911Z,10.80
2023-02-12T18:50:20.663Z,10.83
2023-02-12T18:52:47.111Z,10.79
2023-02-12T18:55:13.479Z,10.76
2023-02-12T18:57:39.954Z,10.63
2023-02-12T19:00:07.004Z,10.65
2023-02-12T19:02:33.424Z,10.63
2023-02-12T19:04:59.795Z,10.63
2023-02-12T19:07:27.280Z,10.66
2023-02-12T19:09:53.887Z,10.69
2023-02-12T19:12:20.445Z,10.69
2023-02-12T19:14:47.101Z,10.55
2023-02-12T19:17:13.464Z,10.50
2023-02-12T19:19:40.070Z,10.49
2023-02-12T19:22:06.526Z,10.50
2023-02-12T19:24:45.895Z,10.47
2023-02-12T19:27:13.044Z,10.48
2023-02-12T19:29:39.459Z,10.39
2023-02-12T19:32:05.930Z,10.41
2023-02-12T19:34:32.423Z,10.44
2023-02-12T19:36:58.808Z,10.48
2023-02-12T19:39:25.213Z,10.48
2023-02-12T19:41:51.993Z,10.39
2023-02-12T19:44:20.715Z,10.35
2023-02-12T19:46:48.300Z,10.46
2023-02-12T19:49:17.534Z,10.42
2023-02-12T19:51:44.391Z,10.37
2023-02-12T19:54:12.738Z,10.42
2023-02-12T19:56:40.014Z,10.49
2023-02-12T19:59:07.367Z,10.44
2023-02-12T20:01:34.891Z,10.38
2023-02-12T20:04:02.466Z,10.45
2023-02-12T20:06:33.125Z,10.45
2023-02-12T20:08:59.515Z,10.43
2023-02-12T20:11:28.827Z,10.37
2023-02-12T20:13:59.055Z,10.38
2023-02-12T20:16:31.233Z,10.37
2023-02-12T20:19:02.054Z,10.32
2023-02-12T20:21:28.736Z,10.36
2023-02-12T20:23:55.536Z,10.39
2023-02-12T20:26:22.917Z,10.33
2023-02-12T20:28:50.211Z,10.35
2023-02-12T20:31:27.997Z,10.28
2023-02-12T20:33:56.456Z,10.23
2023-02-12T20:36:24.043Z,10.25
2023-02-12T20:38:55.790Z,10.32
2023-02-12T20:41:23.314Z,10.33
2023-02-12T20:43:49.897Z,10.30
2023-02-12T20:46:19.313Z,10.32
2023-02-12T20:48:45.725Z,10.28
2023-02-12T20:51:15.060Z,10.35
2023-02-12T20:53:42.811Z,10.35
2023-02-12T20:56:15.347Z,10.37
2023-02-12T20:58:44.950Z,10.38
2023-02-12T21:01:19.256Z,10.41
2023-02-12T21:03:45.603Z,10.40
2023-02-12T21:06:13.014Z,10.40
2023-02-12T21:08:40.824Z,10.34
2023-02-12T21:11:17.152Z,10.34
2023-02-12T21:13:58.964Z,10.34
2023-02-12T21:16:34.104Z,10.31
2023-02-12T21:19:00.641Z,10.34
2023-02-12T21:21:30.195Z,10.35
2023-02-12T21:23:58.605Z,10.38
2023-02-12T21:26:27.651Z,10.36
2023-02-12T21:28:56.377Z,10.32
2023-02-12T21:31:29.987Z,10.35
2023-02-12T21:33:58.388Z,10.30
2023-02-12T21:36:28.089Z,10.31
2023-02-12T21:38:55.436Z,10.32
2023-02-12T21:41:29.680Z,10.24
2023-02-12T21:43:58.901Z,10.22
2023-02-12T21:46:26.022Z,10.23
2023-02-12T21:48:52.899Z,10.17
2023-02-12T21:51:22.458Z,10.13
2023-02-12T21:53:50.798Z,10.02
2023-02-12T21:56:17.881Z,9.98
2023-02-12T21:58:45.272Z,9.93
2023-02-12T22:01:18.045Z,9.97
2023-02-12T22:03:44.832Z,10.03
2023-02-12T22:06:12.795Z,10.05
2023-02-12T22:08:39.430Z,9.99
2023-02-12T22:11:08.824Z,9.99
2023-02-12T22:13:36.665Z,9.91
2023-02-12T22:16:19.917Z,9.95
2023-02-12T22:18:48.004Z,10.00
2023-02-12T22:21:16.575Z,9.96
2023-02-12T22:23:44.632Z,9.97
2023-02-12T22:26:18.380Z,10.03
2023-02-12T22:28:47.918Z,10.08
2023-02-12T22:31:19.673Z,10.01
2023-02-12T22:33:47.156Z,9.94
2023-02-12T22:36:13.791Z,9.97
2023-02-12T22:38:41.058Z,9.90
2023-02-12T22:41:08.752Z,9.87
2023-02-12T22:43:37.751Z,9.90
2023-02-12T22:46:04.910Z,9.90
2023-02-12T22:48:31.541Z,9.92
2023-02-12T22:50:58.770Z,9.85
2023-02-12T22:53:26.241Z,9.87
2023-02-12T22:55:53.317Z,9.88
2023-02-12T22:58:19.707Z,9.85
2023-02-12T23:00:46.145Z,9.90
2023-02-12T23:03:12.541Z,9.90
2023-02-12T23:05:39.089Z,9.88
2023-02-12T23:08:06.192Z,9.82
2023-02-12T23:10:32.979Z,9.77
2023-02-12T23:12:59.382Z,9.76
2023-02-12T23:15:25.861Z,9.72
2023-02-12T23:17:52.210Z,9.73
2023-02-12T23:20:18.687Z,9.76
2023-02-12T23:22:45.040Z,9.73
2023-02-12T23:25:11.635Z,9.67
2023-02-12T23:27:38.104Z,9.71
2023-02-12T23:30:05.075Z,9.70
2023-02-12T23:32:31.429Z,9.60
2023-02-12T23:34:57.855Z,9.67
2023-02-12T23:37:24.260Z,9.72
2023-02-12T23:39:50.662Z,9.66
2023-02-12T23:42:17.052Z,9.69
2023-02-12T23:44:43.479Z,9.66
2023-02-12T23:47:09.836Z,9.71
2023-02-12T23:49:37.915Z,9.70
2023-02-12T23:52:04.648Z,9.73
2023-02-12T23:54:31.822Z,9.76
2023-02-12T23:56:58.323Z,9.71
2023-02-12T23:59:25.776Z,9.77
